Promitheas — SYIJ — position and weather

sailwx.info

Track history (hours):
 
Tides and Currents Weather Stations Pressure Air Temp Water Temp Dewpoint Dewpoint Depression Visibility Wind Speed Wind Dir Waves Ship Positions

Promitheas

Last reported at 2015-Jan-25 15:17 UTC. Time now 2015-Jan-26 14:32 UTC.
Position N 54°33' E 004°26'.

Length 249 m; draft 8.2 m.

Type: Tanker. MMSI: 240547000.

Date/timePositionNaut miles runAvg speedWind from/ knotsBaromVisibWave heightAir tempDewpointWater temp
2015-Jan-25 15:17N 54°33' E 004°26'29 1.0
2015-Jan-24 11:05N 54°05' E 004°36'4 8.0
2015-Jan-24 10:33N 54°01' E 004°37'11510.1
2015-Jan-23 23:07N 52°24' E 002°55'36 9.5
2015-Jan-23 19:17N 51°49' E 002°37'2011.4
2015-Jan-23 17:33N 51°33' E 002°19'1212.3
2015-Jan-23 16:33N 51°22' E 002°10'1312.9
2015-Jan-23 15:34N 51°12' E 001°58'1414.2
2015-Jan-23 14:33N 51°04' E 001°40'1514.8
2015-Jan-23 13:34N 50°51' E 001°27'  
2015-Jan-16 01:22N 47°07' W 002°28'  
Track history (hours):
 
Tides and Currents Weather Stations Pressure Air Temp Water Temp Dewpoint Dewpoint Depression Visibility Wind Speed Wind Dir Waves Ship Positions

Promitheas

Last reported at 2015-Jan-25 15:17 UTC. Time now 2015-Jan-26 14:32 UTC.
Position N 54°33' E 004°26'.

Length 249 m; draft 8.2 m.

Type: Tanker. MMSI: 240547000.

Date/timePositionNaut miles runAvg speedWind from/ knotsBaromVisibWave heightAir tempDewpointWater temp
2015-Jan-25 15:17N 54°33' E 004°26'29 1.0
2015-Jan-24 11:05N 54°05' E 004°36'4 8.0
2015-Jan-24 10:33N 54°01' E 004°37'11510.1
2015-Jan-23 23:07N 52°24' E 002°55'36 9.5
2015-Jan-23 19:17N 51°49' E 002°37'2011.4
2015-Jan-23 17:33N 51°33' E 002°19'1212.3
2015-Jan-23 16:33N 51°22' E 002°10'1312.9
2015-Jan-23 15:34N 51°12' E 001°58'1414.2
2015-Jan-23 14:33N 51°04' E 001°40'1514.8
2015-Jan-23 13:34N 50°51' E 001°27'  
2015-Jan-16 01:22N 47°07' W 002°28'  

Dump ship's entire track history